PGT61V EHAM-LTFJ
Flight info
| Callsign | PGT61V |
|---|---|
| Flight time | 3h 14m |
| Altitude | 39000 |
| Route | ARNEM L620 NOMKA DCT SUVUT L620 OMELO DCT EVIKU DCT BNO DCT ODNEM DCT NIT DCT ERGOM DCT DODAR DCT MEDUD DCT GUPRO DCT LELTI DCT XANEX DCT ETOPO DCT ADORU UM19 IBODU |
| Aircraft | A21N/M-SDE2E3FGHIJ3J4J5M1RWXYZ/LB1D1 |
Departure
| Time | 2026-05-07 11:31 |
|---|---|
| Airport | Amsterdam Airport Schiphol (EHAM) |
Arrival
| Time | 2026-05-07 14:45 |
|---|---|
| Airport | Istanbul Sabiha Gökçen International Airport (LTFJ) |
| Time | Latitude | Longitude | Altitude | Speed | Heading |
|---|---|---|---|---|---|
| 2026-05-07 11:02 | 52.31059 | 4.76693 | 4 ft | 0 kts | 304° |
| 2026-05-07 11:17 | 52.31047 | 4.76723 | 4 ft | 4 kts | 302° |
| 2026-05-07 11:17 | 52.31032 | 4.76760 | 4 ft | 4 kts | 307° |
| 2026-05-07 11:17 | 52.31015 | 4.76786 | 4 ft | 5 kts | 352° |
| 2026-05-07 11:18 | 52.31007 | 4.76785 | 4 ft | 6 kts | 38° |
| 2026-05-07 11:18 | 52.31026 | 4.76807 | 4 ft | 4 kts | 34° |
| 2026-05-07 11:18 | 52.31048 | 4.76832 | 4 ft | 3 kts | 33° |
| 2026-05-07 11:18 | 52.31051 | 4.76835 | 4 ft | 1 kts | 34° |
| 2026-05-07 11:22 | 52.31059 | 4.76844 | 4 ft | 3 kts | 34° |
| 2026-05-07 11:22 | 52.31081 | 4.76868 | 4 ft | 5 kts | 34° |
| 2026-05-07 11:22 | 52.31116 | 4.76905 | 4 ft | 7 kts | 33° |
| 2026-05-07 11:22 | 52.31162 | 4.76954 | 4 ft | 9 kts | 33° |
| 2026-05-07 11:23 | 52.31221 | 4.77016 | 4 ft | 11 kts | 32° |
| 2026-05-07 11:23 | 52.31292 | 4.77092 | 4 ft | 13 kts | 34° |
| 2026-05-07 11:23 | 52.31374 | 4.77180 | 4 ft | 15 kts | 21° |
| 2026-05-07 11:23 | 52.31485 | 4.77199 | 4 ft | 17 kts | 4° |
| 2026-05-07 11:24 | 52.31565 | 4.77151 | 4 ft | 13 kts | 286° |
| 2026-05-07 11:24 | 52.31565 | 4.76997 | 4 ft | 15 kts | 267° |
| 2026-05-07 11:24 | 52.31559 | 4.76820 | 4 ft | 17 kts | 266° |
| 2026-05-07 11:24 | 52.31552 | 4.76621 | 4 ft | 18 kts | 267° |
| 2026-05-07 11:25 | 52.31545 | 4.76401 | 5 ft | 20 kts | 266° |
| 2026-05-07 11:25 | 52.31536 | 4.76162 | 5 ft | 22 kts | 266° |
| 2026-05-07 11:25 | 52.31528 | 4.75904 | 5 ft | 24 kts | 267° |
| 2026-05-07 11:25 | 52.31519 | 4.75631 | 4 ft | 23 kts | 267° |
| 2026-05-07 11:26 | 52.31510 | 4.75391 | 4 ft | 22 kts | 266° |
| 2026-05-07 11:26 | 52.31501 | 4.75139 | 4 ft | 23 kts | 266° |
| 2026-05-07 11:26 | 52.31491 | 4.74868 | 4 ft | 24 kts | 267° |
| 2026-05-07 11:26 | 52.31484 | 4.74621 | 5 ft | 20 kts | 267° |
| 2026-05-07 11:27 | 52.31477 | 4.74385 | 5 ft | 20 kts | 267° |
| 2026-05-07 11:27 | 52.31450 | 4.74195 | 4 ft | 18 kts | 229° |
| 2026-05-07 11:27 | 52.31333 | 4.74132 | 4 ft | 19 kts | 183° |
| 2026-05-07 11:27 | 52.31194 | 4.74119 | 4 ft | 21 kts | 184° |
| 2026-05-07 11:28 | 52.31045 | 4.74103 | 4 ft | 22 kts | 184° |
| 2026-05-07 11:28 | 52.30885 | 4.74093 | 4 ft | 24 kts | 182° |
| 2026-05-07 11:28 | 52.30738 | 4.74082 | 4 ft | 19 kts | 183° |
| 2026-05-07 11:28 | 52.30603 | 4.74069 | 4 ft | 20 kts | 183° |
| 2026-05-07 11:29 | 52.30464 | 4.74056 | 4 ft | 15 kts | 183° |
| 2026-05-07 11:29 | 52.30406 | 4.73932 | 4 ft | 16 kts | 271° |
| 2026-05-07 11:29 | 52.30412 | 4.73797 | 2 ft | 5 kts | 274° |
| 2026-05-07 11:29 | 52.30435 | 4.73766 | 2 ft | 5 kts | 343° |
| 2026-05-07 11:30 | 52.30479 | 4.73764 | 3 ft | 7 kts | 3° |
| 2026-05-07 11:30 | 52.30630 | 4.73778 | 2 ft | 52 kts | 3° |
| 2026-05-07 11:30 | 52.31219 | 4.73829 | 3 ft | 115 kts | 2° |
| 2026-05-07 11:30 | 52.32183 | 4.73913 | 6 ft | 164 kts | 4° |
| 2026-05-07 11:31 | 52.33326 | 4.74062 | 475 ft | 164 kts | 3° |
| 2026-05-07 11:31 | 52.34452 | 4.74333 | 1078 ft | 165 kts | 21° |
| 2026-05-07 11:31 | 52.35535 | 4.75180 | 1499 ft | 181 kts | 25° |
| 2026-05-07 11:31 | 52.36727 | 4.76102 | 1999 ft | 199 kts | 24° |
| 2026-05-07 11:32 | 52.39143 | 4.79055 | 3085 ft | 243 kts | 46° |
| 2026-05-07 11:32 | 52.40341 | 4.81120 | 3865 ft | 254 kts | 46° |
| 2026-05-07 11:32 | 52.41541 | 4.83266 | 4787 ft | 258 kts | 52° |
| 2026-05-07 11:33 | 52.42329 | 4.85871 | 5665 ft | 263 kts | 76° |
| 2026-05-07 11:33 | 52.42483 | 4.88870 | 6558 ft | 267 kts | 89° |
| 2026-05-07 11:33 | 52.42464 | 4.91933 | 7442 ft | 271 kts | 90° |
| 2026-05-07 11:33 | 52.42433 | 4.95045 | 8318 ft | 276 kts | 92° |
| 2026-05-07 11:34 | 52.42051 | 4.98144 | 9175 ft | 281 kts | 112° |
| 2026-05-07 11:34 | 52.40939 | 5.00791 | 10009 ft | 288 kts | 137° |
| 2026-05-07 11:34 | 52.39301 | 5.02828 | 10564 ft | 306 kts | 146° |
| 2026-05-07 11:34 | 52.37459 | 5.04834 | 10960 ft | 328 kts | 146° |
| 2026-05-07 11:35 | 52.35541 | 5.06951 | 11597 ft | 338 kts | 145° |
| 2026-05-07 11:35 | 52.33743 | 5.09476 | 12363 ft | 343 kts | 130° |
| 2026-05-07 11:35 | 52.32526 | 5.12846 | 13145 ft | 347 kts | 112° |
| 2026-05-07 11:35 | 52.31661 | 5.16481 | 13931 ft | 351 kts | 110° |
| 2026-05-07 11:36 | 52.30809 | 5.20244 | 14681 ft | 355 kts | 110° |
| 2026-05-07 11:36 | 52.29949 | 5.24049 | 15426 ft | 358 kts | 110° |
| 2026-05-07 11:36 | 52.29087 | 5.27887 | 16146 ft | 362 kts | 110° |
| 2026-05-07 11:36 | 52.28221 | 5.31758 | 16840 ft | 365 kts | 110° |
| 2026-05-07 11:37 | 52.27348 | 5.35684 | 17514 ft | 369 kts | 110° |
| 2026-05-07 11:37 | 52.26517 | 5.39433 | 18119 ft | 373 kts | 110° |
| 2026-05-07 11:37 | 52.25636 | 5.43429 | 18745 ft | 377 kts | 110° |
| 2026-05-07 11:37 | 52.24747 | 5.47471 | 19358 ft | 380 kts | 110° |
| 2026-05-07 11:38 | 52.23863 | 5.51497 | 19953 ft | 383 kts | 110° |
| 2026-05-07 11:38 | 52.22960 | 5.55608 | 20531 ft | 387 kts | 110° |
| 2026-05-07 11:38 | 52.22050 | 5.59756 | 21093 ft | 390 kts | 110° |
| 2026-05-07 11:38 | 52.21133 | 5.63932 | 21638 ft | 393 kts | 110° |
| 2026-05-07 11:39 | 52.20208 | 5.68144 | 22170 ft | 396 kts | 110° |
| 2026-05-07 11:39 | 52.19278 | 5.72384 | 22690 ft | 399 kts | 110° |
| 2026-05-07 11:39 | 52.18341 | 5.76668 | 23192 ft | 403 kts | 110° |
| 2026-05-07 11:39 | 52.17404 | 5.80986 | 23685 ft | 406 kts | 109° |
| 2026-05-07 11:40 | 52.16268 | 5.85118 | 24148 ft | 408 kts | 123° |
| 2026-05-07 11:40 | 52.14514 | 5.88836 | 24631 ft | 409 kts | 133° |
| 2026-05-07 11:40 | 52.12680 | 5.92309 | 25098 ft | 412 kts | 126° |
| 2026-05-07 11:40 | 52.11391 | 5.96482 | 25551 ft | 416 kts | 109° |
| 2026-05-07 11:41 | 52.10589 | 6.01021 | 26011 ft | 419 kts | 104° |
| 2026-05-07 11:41 | 52.09892 | 6.05626 | 26450 ft | 421 kts | 104° |
| 2026-05-07 11:41 | 52.09324 | 6.10308 | 26878 ft | 423 kts | 99° |
| 2026-05-07 11:41 | 52.08853 | 6.15047 | 27290 ft | 426 kts | 99° |
| 2026-05-07 11:42 | 52.08375 | 6.19805 | 27697 ft | 427 kts | 99° |
| 2026-05-07 11:42 | 52.07885 | 6.24588 | 28088 ft | 429 kts | 99° |
| 2026-05-07 11:42 | 52.07387 | 6.29377 | 28459 ft | 431 kts | 99° |
| 2026-05-07 11:42 | 52.06887 | 6.34119 | 28807 ft | 433 kts | 99° |
| 2026-05-07 11:43 | 52.06373 | 6.38960 | 29173 ft | 435 kts | 99° |
| 2026-05-07 11:43 | 52.05860 | 6.43808 | 29512 ft | 437 kts | 99° |
| 2026-05-07 11:43 | 52.05343 | 6.48674 | 29857 ft | 438 kts | 99° |
| 2026-05-07 11:43 | 52.04823 | 6.53562 | 30186 ft | 440 kts | 99° |
| 2026-05-07 11:44 | 52.04299 | 6.58466 | 30498 ft | 442 kts | 100° |
| 2026-05-07 11:44 | 52.03767 | 6.63396 | 30801 ft | 444 kts | 99° |
| 2026-05-07 11:44 | 52.03233 | 6.68348 | 31107 ft | 446 kts | 100° |
| 2026-05-07 11:44 | 52.02702 | 6.73245 | 31390 ft | 448 kts | 100° |
| 2026-05-07 11:45 | 52.02076 | 6.78199 | 31642 ft | 450 kts | 104° |
| 2026-05-07 11:45 | 52.01308 | 6.83143 | 31889 ft | 452 kts | 104° |
| 2026-05-07 11:45 | 52.00525 | 6.88098 | 32135 ft | 454 kts | 104° |
| 2026-05-07 11:45 | 51.99737 | 6.93070 | 32355 ft | 456 kts | 104° |
| 2026-05-07 11:46 | 51.98947 | 6.98060 | 32618 ft | 457 kts | 104° |
| 2026-05-07 11:46 | 51.98156 | 7.03051 | 32919 ft | 457 kts | 104° |
| 2026-05-07 11:46 | 51.97360 | 7.08024 | 33197 ft | 456 kts | 104° |
| 2026-05-07 11:46 | 51.96510 | 7.12988 | 33467 ft | 456 kts | 107° |
| 2026-05-07 11:47 | 51.95618 | 7.17845 | 33691 ft | 456 kts | 107° |
| 2026-05-07 11:47 | 51.94703 | 7.22773 | 33910 ft | 457 kts | 107° |
| 2026-05-07 11:47 | 51.93785 | 7.27712 | 34146 ft | 457 kts | 107° |
| 2026-05-07 11:47 | 51.92869 | 7.32633 | 34372 ft | 457 kts | 107° |
| 2026-05-07 11:48 | 51.91951 | 7.37551 | 34580 ft | 457 kts | 107° |
| 2026-05-07 11:48 | 51.91030 | 7.42482 | 34768 ft | 457 kts | 107° |
| 2026-05-07 11:48 | 51.90104 | 7.47415 | 34955 ft | 458 kts | 107° |
| 2026-05-07 11:48 | 51.89175 | 7.52344 | 35133 ft | 458 kts | 107° |
| 2026-05-07 11:49 | 51.88245 | 7.57275 | 35309 ft | 458 kts | 108° |
| 2026-05-07 11:49 | 51.87315 | 7.62207 | 35475 ft | 458 kts | 108° |
| 2026-05-07 11:49 | 51.86394 | 7.67075 | 35637 ft | 458 kts | 108° |
| 2026-05-07 11:49 | 51.85514 | 7.72030 | 35786 ft | 459 kts | 104° |
| 2026-05-07 11:50 | 51.84787 | 7.77063 | 35914 ft | 460 kts | 104° |
| 2026-05-07 11:50 | 51.84073 | 7.82097 | 36058 ft | 460 kts | 104° |
| 2026-05-07 11:50 | 51.83356 | 7.87137 | 36195 ft | 460 kts | 104° |
| 2026-05-07 11:50 | 51.82633 | 7.92182 | 36322 ft | 461 kts | 104° |
| 2026-05-07 11:51 | 51.81904 | 7.97234 | 36448 ft | 461 kts | 104° |
| 2026-05-07 11:51 | 51.81174 | 8.02289 | 36586 ft | 462 kts | 104° |
| 2026-05-07 11:51 | 51.80444 | 8.07337 | 36761 ft | 461 kts | 104° |
| 2026-05-07 11:51 | 51.79724 | 8.12293 | 36965 ft | 459 kts | 104° |
| 2026-05-07 11:52 | 51.78991 | 8.17298 | 37175 ft | 457 kts | 104° |
| 2026-05-07 11:52 | 51.78263 | 8.22277 | 37333 ft | 455 kts | 104° |
| 2026-05-07 11:52 | 51.77533 | 8.27252 | 37447 ft | 455 kts | 104° |
| 2026-05-07 11:53 | 51.76082 | 8.37201 | 37631 ft | 456 kts | 104° |
| 2026-05-07 11:53 | 51.74721 | 8.47225 | 37807 ft | 457 kts | 103° |
| 2026-05-07 11:54 | 51.73356 | 8.57174 | 37942 ft | 458 kts | 104° |
| 2026-05-07 11:54 | 51.71957 | 8.67185 | 38173 ft | 456 kts | 104° |
| 2026-05-07 11:54 | 51.71261 | 8.72143 | 38465 ft | 451 kts | 104° |
| 2026-05-07 11:55 | 51.70574 | 8.77037 | 38801 ft | 446 kts | 104° |
| 2026-05-07 11:55 | 51.69898 | 8.81815 | 39041 ft | 445 kts | 105° |
| 2026-05-07 11:55 | 51.69201 | 8.86702 | 39090 ft | 450 kts | 104° |
| 2026-05-07 11:56 | 51.67789 | 8.96672 | 39080 ft | 459 kts | 105° |
| 2026-05-07 11:56 | 51.66354 | 9.06717 | 39072 ft | 463 kts | 105° |
| 2026-05-07 11:57 | 51.64910 | 9.16742 | 39048 ft | 462 kts | 105° |
| 2026-05-07 11:57 | 51.63451 | 9.26812 | 39049 ft | 462 kts | 105° |
| 2026-05-07 11:58 | 51.61984 | 9.36842 | 39041 ft | 463 kts | 105° |
| 2026-05-07 11:58 | 51.60496 | 9.46947 | 39034 ft | 462 kts | 105° |
| 2026-05-07 11:59 | 51.59010 | 9.57000 | 39029 ft | 462 kts | 105° |
| 2026-05-07 11:59 | 51.57514 | 9.67064 | 39028 ft | 462 kts | 105° |
| 2026-05-07 12:00 | 51.56019 | 9.77017 | 39030 ft | 463 kts | 105° |
| 2026-05-07 12:00 | 51.54508 | 9.87049 | 39030 ft | 461 kts | 105° |
| 2026-05-07 12:01 | 51.52992 | 9.97061 | 39031 ft | 462 kts | 105° |
| 2026-05-07 12:01 | 51.51461 | 10.07075 | 39030 ft | 461 kts | 106° |
| 2026-05-07 12:02 | 51.49941 | 10.16998 | 39028 ft | 461 kts | 106° |
| 2026-05-07 12:02 | 51.48386 | 10.26994 | 39030 ft | 461 kts | 106° |
| 2026-05-07 12:03 | 51.46834 | 10.36967 | 39030 ft | 460 kts | 106° |
| 2026-05-07 12:03 | 51.45282 | 10.46936 | 39020 ft | 461 kts | 106° |
| 2026-05-07 12:04 | 51.43717 | 10.56900 | 39018 ft | 461 kts | 107° |
| 2026-05-07 12:04 | 51.42152 | 10.66797 | 39008 ft | 461 kts | 107° |
| 2026-05-07 12:05 | 51.40575 | 10.76732 | 39020 ft | 461 kts | 107° |
| 2026-05-07 12:05 | 51.38981 | 10.86671 | 39017 ft | 461 kts | 107° |
| 2026-05-07 12:06 | 51.37393 | 10.96536 | 39018 ft | 462 kts | 107° |
| 2026-05-07 12:06 | 51.35782 | 11.06462 | 39015 ft | 460 kts | 107° |
| 2026-05-07 12:07 | 51.34174 | 11.16352 | 39018 ft | 461 kts | 107° |
| 2026-05-07 12:07 | 51.32555 | 11.26248 | 39014 ft | 460 kts | 107° |
| 2026-05-07 12:08 | 51.30923 | 11.36137 | 39004 ft | 461 kts | 107° |
| 2026-05-07 12:08 | 51.29290 | 11.45980 | 39032 ft | 461 kts | 107° |
| 2026-05-07 12:09 | 51.27622 | 11.55844 | 39030 ft | 460 kts | 108° |
| 2026-05-07 12:09 | 51.25955 | 11.65726 | 39017 ft | 461 kts | 107° |
| 2026-05-07 12:10 | 51.24291 | 11.75597 | 39028 ft | 460 kts | 108° |
| 2026-05-07 12:10 | 51.22625 | 11.85388 | 39014 ft | 461 kts | 108° |
| 2026-05-07 12:11 | 51.20949 | 11.95236 | 39028 ft | 460 kts | 108° |
| 2026-05-07 12:11 | 51.19265 | 12.05083 | 39013 ft | 460 kts | 108° |
| 2026-05-07 12:12 | 51.17574 | 12.14905 | 39013 ft | 459 kts | 108° |
| 2026-05-07 12:12 | 51.15873 | 12.24719 | 39014 ft | 460 kts | 108° |
| 2026-05-07 12:13 | 51.14159 | 12.34463 | 39007 ft | 460 kts | 108° |
| 2026-05-07 12:13 | 51.12425 | 12.44257 | 38998 ft | 459 kts | 109° |
| 2026-05-07 12:14 | 51.10684 | 12.54021 | 38997 ft | 459 kts | 109° |
| 2026-05-07 12:14 | 51.09230 | 12.62152 | 38995 ft | 459 kts | 109° |
| 2026-05-07 12:15 | 51.07191 | 12.73510 | 39006 ft | 459 kts | 109° |
| 2026-05-07 12:15 | 51.05427 | 12.83268 | 39002 ft | 459 kts | 109° |
| 2026-05-07 12:16 | 51.03656 | 12.92997 | 38996 ft | 458 kts | 109° |
| 2026-05-07 12:16 | 51.02175 | 13.01095 | 39003 ft | 459 kts | 109° |
| 2026-05-07 12:17 | 51.00098 | 13.12392 | 38995 ft | 459 kts | 109° |
| 2026-05-07 12:17 | 50.98595 | 13.20529 | 38995 ft | 459 kts | 109° |
| 2026-05-07 12:18 | 50.96805 | 13.30162 | 38975 ft | 458 kts | 110° |
| 2026-05-07 12:18 | 50.95042 | 13.39883 | 38978 ft | 458 kts | 109° |
| 2026-05-07 12:19 | 50.93320 | 13.49600 | 38976 ft | 458 kts | 109° |
| 2026-05-07 12:19 | 50.91518 | 13.59278 | 38976 ft | 457 kts | 110° |
| 2026-05-07 12:20 | 50.89703 | 13.68874 | 38971 ft | 458 kts | 110° |
| 2026-05-07 12:20 | 50.87879 | 13.78540 | 38969 ft | 458 kts | 110° |
| 2026-05-07 12:21 | 50.86042 | 13.88243 | 38972 ft | 457 kts | 110° |
| 2026-05-07 12:21 | 50.83936 | 13.97632 | 38965 ft | 452 kts | 121° |
| 2026-05-07 12:22 | 50.80217 | 14.05452 | 38975 ft | 444 kts | 140° |
| 2026-05-07 12:22 | 50.75666 | 14.11924 | 38973 ft | 439 kts | 142° |
| 2026-05-07 12:23 | 50.71111 | 14.18389 | 38972 ft | 440 kts | 141° |
| 2026-05-07 12:23 | 50.66613 | 14.24848 | 38972 ft | 440 kts | 141° |
| 2026-05-07 12:24 | 50.62084 | 14.31340 | 38971 ft | 440 kts | 141° |
| 2026-05-07 12:24 | 50.57553 | 14.37816 | 38969 ft | 439 kts | 141° |
| 2026-05-07 12:25 | 50.53029 | 14.44256 | 38972 ft | 440 kts | 141° |
| 2026-05-07 12:25 | 50.48491 | 14.50720 | 38972 ft | 439 kts | 141° |
| 2026-05-07 12:26 | 50.44146 | 14.57400 | 38967 ft | 442 kts | 136° |
| 2026-05-07 12:26 | 50.39990 | 14.64515 | 38964 ft | 442 kts | 136° |
| 2026-05-07 12:27 | 50.35836 | 14.71618 | 38961 ft | 442 kts | 136° |
| 2026-05-07 12:27 | 50.31663 | 14.78694 | 38959 ft | 443 kts | 137° |
| 2026-05-07 12:28 | 50.27490 | 14.85757 | 38961 ft | 442 kts | 137° |
| 2026-05-07 12:28 | 50.23340 | 14.92775 | 38960 ft | 442 kts | 137° |
| 2026-05-07 12:29 | 50.19160 | 14.99822 | 38961 ft | 443 kts | 137° |
| 2026-05-07 12:29 | 50.14975 | 15.06849 | 38959 ft | 442 kts | 137° |
| 2026-05-07 12:30 | 50.10776 | 15.13874 | 38959 ft | 443 kts | 137° |
| 2026-05-07 12:30 | 50.06612 | 15.20833 | 38951 ft | 442 kts | 137° |
| 2026-05-07 12:31 | 50.02410 | 15.27829 | 38953 ft | 443 kts | 137° |
| 2026-05-07 12:31 | 49.98206 | 15.34820 | 38946 ft | 442 kts | 137° |
| 2026-05-07 12:32 | 49.93993 | 15.41807 | 38945 ft | 444 kts | 138° |
| 2026-05-07 12:32 | 49.89795 | 15.48735 | 38941 ft | 443 kts | 138° |
| 2026-05-07 12:33 | 49.83464 | 15.59165 | 38938 ft | 443 kts | 138° |
| 2026-05-07 12:33 | 49.79233 | 15.66111 | 38940 ft | 443 kts | 138° |
| 2026-05-07 12:34 | 49.74997 | 15.73037 | 38938 ft | 443 kts | 138° |
| 2026-05-07 12:34 | 49.70767 | 15.79950 | 38940 ft | 442 kts | 138° |
| 2026-05-07 12:35 | 49.66563 | 15.86798 | 38942 ft | 443 kts | 138° |
| 2026-05-07 12:35 | 49.62315 | 15.93691 | 38947 ft | 442 kts | 138° |
| 2026-05-07 12:36 | 49.58077 | 16.00551 | 38951 ft | 442 kts | 138° |
| 2026-05-07 12:36 | 49.53828 | 16.07406 | 38954 ft | 442 kts | 139° |
| 2026-05-07 12:37 | 49.49615 | 16.14187 | 38959 ft | 441 kts | 139° |
| 2026-05-07 12:37 | 49.45370 | 16.21003 | 38953 ft | 442 kts | 139° |
| 2026-05-07 12:38 | 49.41114 | 16.27816 | 38952 ft | 442 kts | 139° |
| 2026-05-07 12:38 | 49.36854 | 16.34627 | 38951 ft | 442 kts | 139° |
| 2026-05-07 12:39 | 49.32624 | 16.41365 | 38951 ft | 441 kts | 139° |
| 2026-05-07 12:39 | 49.28371 | 16.48122 | 38949 ft | 441 kts | 139° |
| 2026-05-07 12:40 | 49.24107 | 16.54877 | 38944 ft | 441 kts | 139° |
| 2026-05-07 12:40 | 49.19872 | 16.61575 | 38942 ft | 441 kts | 139° |
| 2026-05-07 12:41 | 49.15606 | 16.68302 | 38941 ft | 440 kts | 139° |
| 2026-05-07 12:41 | 49.11377 | 16.75063 | 38935 ft | 441 kts | 138° |
| 2026-05-07 12:42 | 49.07173 | 16.81862 | 38942 ft | 440 kts | 138° |
| 2026-05-07 12:42 | 49.02966 | 16.88629 | 38938 ft | 439 kts | 139° |
| 2026-05-07 12:43 | 48.98756 | 16.95368 | 38939 ft | 439 kts | 139° |
| 2026-05-07 12:43 | 48.94540 | 17.02096 | 38949 ft | 440 kts | 139° |
| 2026-05-07 12:44 | 48.90343 | 17.08783 | 38950 ft | 440 kts | 139° |
| 2026-05-07 12:44 | 48.86118 | 17.15496 | 38957 ft | 439 kts | 139° |
| 2026-05-07 12:45 | 48.81902 | 17.22200 | 38960 ft | 439 kts | 139° |
| 2026-05-07 12:45 | 48.77690 | 17.28910 | 38960 ft | 439 kts | 139° |
| 2026-05-07 12:46 | 48.73508 | 17.35552 | 38960 ft | 438 kts | 139° |
| 2026-05-07 12:46 | 48.69297 | 17.42214 | 38961 ft | 437 kts | 139° |
| 2026-05-07 12:47 | 48.65098 | 17.48839 | 38960 ft | 436 kts | 139° |
| 2026-05-07 12:47 | 48.60889 | 17.55470 | 38962 ft | 437 kts | 139° |
| 2026-05-07 12:48 | 48.56681 | 17.62079 | 38967 ft | 437 kts | 139° |
| 2026-05-07 12:48 | 48.52496 | 17.68633 | 38959 ft | 435 kts | 139° |
| 2026-05-07 12:49 | 48.48292 | 17.75195 | 38960 ft | 435 kts | 139° |
| 2026-05-07 12:49 | 48.44081 | 17.81762 | 38970 ft | 436 kts | 139° |
| 2026-05-07 12:50 | 48.39866 | 17.88312 | 38962 ft | 435 kts | 139° |
| 2026-05-07 12:50 | 48.35684 | 17.94781 | 38968 ft | 435 kts | 139° |
| 2026-05-07 12:51 | 48.31476 | 18.01302 | 38970 ft | 435 kts | 139° |
| 2026-05-07 12:51 | 48.27201 | 18.07708 | 38970 ft | 432 kts | 141° |
| 2026-05-07 12:52 | 48.22853 | 18.13930 | 38971 ft | 432 kts | 141° |
| 2026-05-07 12:52 | 48.18519 | 18.20101 | 38977 ft | 433 kts | 141° |
| 2026-05-07 12:53 | 48.14162 | 18.26321 | 38979 ft | 433 kts | 141° |
| 2026-05-07 12:53 | 48.09803 | 18.32527 | 38982 ft | 433 kts | 142° |
| 2026-05-07 12:54 | 48.05435 | 18.38715 | 38983 ft | 432 kts | 142° |
| 2026-05-07 12:54 | 48.01088 | 18.44844 | 38980 ft | 433 kts | 142° |
| 2026-05-07 12:55 | 47.96713 | 18.51018 | 38981 ft | 433 kts | 142° |
| 2026-05-07 12:55 | 47.92333 | 18.57179 | 38986 ft | 433 kts | 142° |
| 2026-05-07 12:56 | 47.87948 | 18.63339 | 38991 ft | 433 kts | 142° |
| 2026-05-07 12:56 | 47.83582 | 18.69442 | 38992 ft | 433 kts | 142° |
| 2026-05-07 12:57 | 47.79180 | 18.75566 | 38987 ft | 433 kts | 142° |
| 2026-05-07 12:57 | 47.74726 | 18.81585 | 38992 ft | 433 kts | 143° |
| 2026-05-07 12:58 | 47.70265 | 18.87613 | 38984 ft | 434 kts | 143° |
| 2026-05-07 12:58 | 47.65830 | 18.93600 | 38986 ft | 434 kts | 143° |
| 2026-05-07 12:59 | 47.61365 | 18.99613 | 38988 ft | 434 kts | 143° |
| 2026-05-07 12:59 | 47.56890 | 19.05627 | 38988 ft | 434 kts | 143° |
| 2026-05-07 13:00 | 47.52418 | 19.11613 | 38990 ft | 433 kts | 143° |
| 2026-05-07 13:00 | 47.47939 | 19.17600 | 38992 ft | 434 kts | 143° |
| 2026-05-07 13:01 | 47.43484 | 19.23545 | 38989 ft | 434 kts | 143° |
| 2026-05-07 13:01 | 47.38995 | 19.29515 | 38989 ft | 434 kts | 143° |
| 2026-05-07 13:02 | 47.34511 | 19.35472 | 38989 ft | 434 kts | 143° |
| 2026-05-07 13:02 | 47.30017 | 19.41423 | 38989 ft | 434 kts | 143° |
| 2026-05-07 13:03 | 47.25553 | 19.47317 | 38993 ft | 434 kts | 143° |
| 2026-05-07 13:03 | 47.21060 | 19.53241 | 38993 ft | 434 kts | 143° |
| 2026-05-07 13:04 | 47.16537 | 19.59101 | 38993 ft | 434 kts | 143° |
| 2026-05-07 13:04 | 47.11993 | 19.64955 | 38998 ft | 434 kts | 143° |
| 2026-05-07 13:05 | 47.07447 | 19.70810 | 38993 ft | 434 kts | 143° |
| 2026-05-07 13:05 | 47.02940 | 19.76605 | 38997 ft | 434 kts | 143° |
| 2026-05-07 13:06 | 46.98404 | 19.82431 | 39012 ft | 434 kts | 143° |
| 2026-05-07 13:06 | 46.93857 | 19.88253 | 39003 ft | 434 kts | 143° |
| 2026-05-07 13:07 | 46.89310 | 19.94058 | 38998 ft | 434 kts | 143° |
| 2026-05-07 13:07 | 46.84779 | 19.99823 | 38997 ft | 434 kts | 144° |
| 2026-05-07 13:08 | 46.80225 | 20.05601 | 39000 ft | 435 kts | 143° |
| 2026-05-07 13:08 | 46.75652 | 20.11393 | 39015 ft | 435 kts | 143° |
| 2026-05-07 13:09 | 46.71078 | 20.17175 | 39016 ft | 435 kts | 143° |
| 2026-05-07 13:09 | 46.66537 | 20.22901 | 39009 ft | 435 kts | 143° |
| 2026-05-07 13:10 | 46.61953 | 20.28673 | 39029 ft | 435 kts | 143° |
| 2026-05-07 13:10 | 46.57368 | 20.34433 | 39030 ft | 435 kts | 143° |
| 2026-05-07 13:11 | 46.52783 | 20.40172 | 39029 ft | 435 kts | 143° |
| 2026-05-07 13:11 | 46.48192 | 20.45916 | 39030 ft | 435 kts | 143° |
| 2026-05-07 13:12 | 46.43637 | 20.51597 | 39036 ft | 435 kts | 143° |
| 2026-05-07 13:12 | 46.39041 | 20.57308 | 39041 ft | 435 kts | 144° |
| 2026-05-07 13:13 | 46.34449 | 20.63005 | 39040 ft | 435 kts | 143° |
| 2026-05-07 13:13 | 46.29847 | 20.68707 | 39040 ft | 435 kts | 144° |
| 2026-05-07 13:14 | 46.25274 | 20.74353 | 39048 ft | 436 kts | 144° |
| 2026-05-07 13:14 | 46.20663 | 20.80038 | 39049 ft | 436 kts | 144° |
| 2026-05-07 13:15 | 46.16049 | 20.85718 | 39049 ft | 436 kts | 144° |
| 2026-05-07 13:15 | 46.11579 | 20.91653 | 39048 ft | 439 kts | 138° |
| 2026-05-07 13:16 | 46.07355 | 20.98030 | 39050 ft | 440 kts | 138° |
| 2026-05-07 13:16 | 46.03159 | 21.04352 | 39050 ft | 440 kts | 138° |
| 2026-05-07 13:17 | 45.98926 | 21.10697 | 39050 ft | 440 kts | 138° |
| 2026-05-07 13:17 | 45.94679 | 21.17044 | 39051 ft | 441 kts | 138° |
| 2026-05-07 13:18 | 45.90425 | 21.23389 | 39051 ft | 441 kts | 138° |
| 2026-05-07 13:18 | 45.86156 | 21.29728 | 39049 ft | 442 kts | 138° |
| 2026-05-07 13:19 | 45.81922 | 21.36029 | 39050 ft | 442 kts | 138° |
| 2026-05-07 13:19 | 45.77656 | 21.42350 | 39049 ft | 441 kts | 138° |
| 2026-05-07 13:20 | 45.73386 | 21.48657 | 39050 ft | 441 kts | 138° |
| 2026-05-07 13:20 | 45.69113 | 21.54953 | 39050 ft | 441 kts | 138° |
| 2026-05-07 13:21 | 45.64863 | 21.61203 | 39052 ft | 442 kts | 138° |
| 2026-05-07 13:21 | 45.60579 | 21.67492 | 39050 ft | 441 kts | 138° |
| 2026-05-07 13:22 | 45.56287 | 21.73760 | 39043 ft | 441 kts | 138° |
| 2026-05-07 13:22 | 45.52004 | 21.80028 | 39041 ft | 441 kts | 138° |
| 2026-05-07 13:23 | 45.47720 | 21.86278 | 39040 ft | 441 kts | 138° |
| 2026-05-07 13:23 | 45.43401 | 21.92370 | 39041 ft | 440 kts | 140° |
| 2026-05-07 13:24 | 45.38957 | 21.98380 | 39040 ft | 440 kts | 140° |
| 2026-05-07 13:24 | 45.34518 | 22.04378 | 39040 ft | 441 kts | 140° |
| 2026-05-07 13:25 | 45.30071 | 22.10376 | 39042 ft | 442 kts | 140° |
| 2026-05-07 13:25 | 45.25607 | 22.16380 | 39039 ft | 442 kts | 140° |
| 2026-05-07 13:26 | 45.21174 | 22.22337 | 39040 ft | 441 kts | 140° |
| 2026-05-07 13:26 | 45.16711 | 22.28313 | 39040 ft | 442 kts | 140° |
| 2026-05-07 13:27 | 45.12237 | 22.34290 | 39041 ft | 442 kts | 140° |
| 2026-05-07 13:27 | 45.07753 | 22.40265 | 39038 ft | 443 kts | 140° |
| 2026-05-07 13:28 | 45.03302 | 22.46186 | 39039 ft | 442 kts | 140° |
| 2026-05-07 13:28 | 44.98812 | 22.52144 | 39040 ft | 443 kts | 140° |
| 2026-05-07 13:29 | 44.94320 | 22.58094 | 39047 ft | 443 kts | 140° |
| 2026-05-07 13:29 | 44.89822 | 22.64043 | 39052 ft | 444 kts | 140° |
| 2026-05-07 13:30 | 44.85315 | 22.69985 | 39048 ft | 444 kts | 140° |
| 2026-05-07 13:30 | 44.80837 | 22.75880 | 39049 ft | 443 kts | 140° |
| 2026-05-07 13:31 | 44.76325 | 22.81802 | 39056 ft | 444 kts | 140° |
| 2026-05-07 13:31 | 44.71802 | 22.87713 | 39060 ft | 444 kts | 140° |
| 2026-05-07 13:32 | 44.67278 | 22.93620 | 39060 ft | 444 kts | 140° |
| 2026-05-07 13:32 | 44.62773 | 22.99496 | 39060 ft | 445 kts | 140° |
| 2026-05-07 13:33 | 44.58239 | 23.05392 | 39064 ft | 444 kts | 141° |
| 2026-05-07 13:33 | 44.53702 | 23.11287 | 39074 ft | 445 kts | 140° |
| 2026-05-07 13:34 | 44.46885 | 23.20116 | 39068 ft | 445 kts | 140° |
| 2026-05-07 13:35 | 44.42359 | 23.25955 | 39069 ft | 446 kts | 140° |
| 2026-05-07 13:35 | 44.37805 | 23.31827 | 39071 ft | 446 kts | 140° |
| 2026-05-07 13:36 | 44.33240 | 23.37699 | 39080 ft | 446 kts | 140° |
| 2026-05-07 13:36 | 44.28696 | 23.43593 | 39082 ft | 447 kts | 138° |
| 2026-05-07 13:37 | 44.24254 | 23.49659 | 39080 ft | 447 kts | 138° |
| 2026-05-07 13:37 | 44.19845 | 23.55686 | 39056 ft | 447 kts | 138° |
| 2026-05-07 13:38 | 44.15397 | 23.61744 | 39053 ft | 447 kts | 138° |
| 2026-05-07 13:38 | 44.10940 | 23.67803 | 39051 ft | 447 kts | 138° |
| 2026-05-07 13:39 | 44.06491 | 23.73840 | 39051 ft | 447 kts | 138° |
| 2026-05-07 13:39 | 44.02063 | 23.79827 | 39057 ft | 447 kts | 138° |
| 2026-05-07 13:40 | 43.97604 | 23.85850 | 39061 ft | 448 kts | 138° |
| 2026-05-07 13:40 | 43.93127 | 23.91883 | 39060 ft | 448 kts | 138° |
| 2026-05-07 13:41 | 43.88655 | 23.97899 | 39060 ft | 448 kts | 138° |
| 2026-05-07 13:41 | 43.84175 | 24.03906 | 39060 ft | 448 kts | 138° |
| 2026-05-07 13:42 | 43.79723 | 24.09866 | 39059 ft | 448 kts | 138° |
| 2026-05-07 13:42 | 43.75241 | 24.15854 | 39060 ft | 448 kts | 139° |
| 2026-05-07 13:43 | 43.70752 | 24.21839 | 39068 ft | 448 kts | 139° |
| 2026-05-07 13:43 | 43.66262 | 24.27814 | 39071 ft | 448 kts | 139° |
| 2026-05-07 13:44 | 43.61793 | 24.33742 | 39072 ft | 449 kts | 139° |
| 2026-05-07 13:44 | 43.57280 | 24.39718 | 39070 ft | 450 kts | 139° |
| 2026-05-07 13:45 | 43.52762 | 24.45685 | 39069 ft | 450 kts | 139° |
| 2026-05-07 13:45 | 43.48230 | 24.51658 | 39070 ft | 451 kts | 139° |
| 2026-05-07 13:46 | 43.43718 | 24.57593 | 39072 ft | 452 kts | 139° |
| 2026-05-07 13:46 | 43.39170 | 24.63558 | 39081 ft | 452 kts | 139° |
| 2026-05-07 13:47 | 43.34610 | 24.69531 | 39057 ft | 453 kts | 139° |
| 2026-05-07 13:47 | 43.30037 | 24.75510 | 39046 ft | 454 kts | 139° |
| 2026-05-07 13:48 | 43.25489 | 24.81432 | 39041 ft | 454 kts | 139° |
| 2026-05-07 13:48 | 43.20904 | 24.87399 | 39041 ft | 454 kts | 139° |
| 2026-05-07 13:49 | 43.16316 | 24.93363 | 39041 ft | 455 kts | 139° |
| 2026-05-07 13:49 | 43.11719 | 24.99322 | 39040 ft | 456 kts | 139° |
| 2026-05-07 13:50 | 43.07112 | 25.05312 | 39040 ft | 456 kts | 138° |
| 2026-05-07 13:50 | 43.02507 | 25.11297 | 39040 ft | 457 kts | 138° |
| 2026-05-07 13:51 | 42.97925 | 25.17230 | 39040 ft | 457 kts | 138° |
| 2026-05-07 13:51 | 42.93303 | 25.23207 | 39040 ft | 458 kts | 139° |
| 2026-05-07 13:52 | 42.88674 | 25.29175 | 39039 ft | 458 kts | 139° |
| 2026-05-07 13:52 | 42.84037 | 25.35143 | 39041 ft | 459 kts | 139° |
| 2026-05-07 13:53 | 42.79425 | 25.41067 | 39041 ft | 459 kts | 139° |
| 2026-05-07 13:53 | 42.74775 | 25.47021 | 39039 ft | 459 kts | 138° |
| 2026-05-07 13:54 | 42.70128 | 25.52968 | 39040 ft | 459 kts | 138° |
| 2026-05-07 13:54 | 42.65467 | 25.58914 | 39042 ft | 460 kts | 139° |
| 2026-05-07 13:55 | 42.60794 | 25.64858 | 39043 ft | 461 kts | 139° |
| 2026-05-07 13:55 | 42.56146 | 25.70765 | 39042 ft | 461 kts | 139° |
| 2026-05-07 13:56 | 42.51459 | 25.76706 | 39040 ft | 461 kts | 138° |
| 2026-05-07 13:56 | 42.46770 | 25.82635 | 39047 ft | 461 kts | 138° |
| 2026-05-07 13:57 | 42.42083 | 25.88559 | 39050 ft | 461 kts | 138° |
| 2026-05-07 13:57 | 42.37414 | 25.94437 | 39059 ft | 462 kts | 139° |
| 2026-05-07 13:58 | 42.32703 | 26.00364 | 39060 ft | 463 kts | 138° |
| 2026-05-07 13:58 | 42.27979 | 26.06279 | 39060 ft | 463 kts | 139° |
| 2026-05-07 13:59 | 42.23255 | 26.12189 | 39060 ft | 463 kts | 138° |
| 2026-05-07 13:59 | 42.18531 | 26.18090 | 39068 ft | 463 kts | 138° |
| 2026-05-07 14:00 | 42.13833 | 26.23946 | 39078 ft | 463 kts | 139° |
| 2026-05-07 14:00 | 42.09100 | 26.29830 | 39087 ft | 463 kts | 139° |
| 2026-05-07 14:01 | 42.04366 | 26.35705 | 39089 ft | 463 kts | 139° |
| 2026-05-07 14:01 | 42.00411 | 26.40573 | 39090 ft | 464 kts | 139° |
| 2026-05-07 14:02 | 41.95137 | 26.47052 | 39090 ft | 464 kts | 139° |
| 2026-05-07 14:02 | 41.90400 | 26.52865 | 39098 ft | 465 kts | 139° |
| 2026-05-07 14:03 | 41.85807 | 26.58996 | 39101 ft | 467 kts | 131° |
| 2026-05-07 14:03 | 41.81661 | 26.65712 | 39099 ft | 468 kts | 130° |
| 2026-05-07 14:04 | 41.77520 | 26.72445 | 39101 ft | 468 kts | 130° |
| 2026-05-07 14:04 | 41.73381 | 26.79116 | 39101 ft | 469 kts | 130° |
| 2026-05-07 14:05 | 41.69201 | 26.85842 | 39101 ft | 470 kts | 130° |
| 2026-05-07 14:05 | 41.65012 | 26.92566 | 39100 ft | 471 kts | 130° |
| 2026-05-07 14:06 | 41.60814 | 26.99294 | 39100 ft | 472 kts | 130° |
| 2026-05-07 14:06 | 41.56648 | 27.06015 | 39099 ft | 473 kts | 127° |
| 2026-05-07 14:07 | 41.53436 | 27.13643 | 39111 ft | 472 kts | 112° |
| 2026-05-07 14:07 | 41.50805 | 27.21671 | 39098 ft | 471 kts | 112° |
| 2026-05-07 14:07 | 41.49489 | 27.25650 | 38793 ft | 469 kts | 112° |
| 2026-05-07 14:08 | 41.48160 | 27.29633 | 38511 ft | 470 kts | 112° |
| 2026-05-07 14:08 | 41.46840 | 27.33571 | 38257 ft | 471 kts | 112° |
| 2026-05-07 14:08 | 41.45500 | 27.37547 | 38005 ft | 471 kts | 112° |
| 2026-05-07 14:08 | 41.44156 | 27.41525 | 37753 ft | 471 kts | 112° |
| 2026-05-07 14:09 | 41.42812 | 27.45508 | 37502 ft | 471 kts | 112° |
| 2026-05-07 14:09 | 41.41465 | 27.49495 | 37254 ft | 472 kts | 112° |
| 2026-05-07 14:09 | 41.40115 | 27.53479 | 37004 ft | 472 kts | 112° |
| 2026-05-07 14:09 | 41.38767 | 27.57455 | 36757 ft | 472 kts | 112° |
| 2026-05-07 14:10 | 41.37423 | 27.61428 | 36511 ft | 472 kts | 112° |
| 2026-05-07 14:10 | 41.36311 | 27.65530 | 36247 ft | 469 kts | 100° |
| 2026-05-07 14:10 | 41.35959 | 27.69756 | 36004 ft | 464 kts | 84° |
| 2026-05-07 14:10 | 41.36222 | 27.74018 | 35755 ft | 462 kts | 79° |
| 2026-05-07 14:11 | 41.36599 | 27.78266 | 35515 ft | 463 kts | 79° |
| 2026-05-07 14:11 | 41.36972 | 27.82526 | 35263 ft | 463 kts | 79° |
| 2026-05-07 14:11 | 41.37324 | 27.86786 | 35011 ft | 461 kts | 79° |
| 2026-05-07 14:11 | 41.37658 | 27.91025 | 34760 ft | 459 kts | 80° |
| 2026-05-07 14:12 | 41.37982 | 27.95243 | 34509 ft | 458 kts | 80° |
| 2026-05-07 14:12 | 41.38300 | 27.99452 | 34254 ft | 456 kts | 81° |
| 2026-05-07 14:12 | 41.38361 | 28.03622 | 33985 ft | 459 kts | 90° |
| 2026-05-07 14:12 | 41.37901 | 28.07821 | 33549 ft | 458 kts | 97° |
| 2026-05-07 14:13 | 41.37272 | 28.11974 | 33026 ft | 457 kts | 98° |
| 2026-05-07 14:13 | 41.36623 | 28.16108 | 32473 ft | 456 kts | 98° |
| 2026-05-07 14:13 | 41.35991 | 28.20224 | 31868 ft | 454 kts | 98° |
| 2026-05-07 14:13 | 41.35370 | 28.24336 | 31275 ft | 451 kts | 97° |
| 2026-05-07 14:14 | 41.34762 | 28.28413 | 30703 ft | 448 kts | 97° |
| 2026-05-07 14:14 | 41.34162 | 28.32464 | 30168 ft | 444 kts | 97° |
| 2026-05-07 14:14 | 41.33566 | 28.36474 | 29623 ft | 441 kts | 97° |
| 2026-05-07 14:14 | 41.32970 | 28.40463 | 29072 ft | 437 kts | 97° |
| 2026-05-07 14:15 | 41.32377 | 28.44404 | 28550 ft | 433 kts | 97° |
| 2026-05-07 14:15 | 41.31795 | 28.48270 | 28042 ft | 430 kts | 97° |
| 2026-05-07 14:15 | 41.31209 | 28.52145 | 27526 ft | 426 kts | 97° |
| 2026-05-07 14:15 | 41.30748 | 28.56002 | 27000 ft | 418 kts | 89° |
| 2026-05-07 14:16 | 41.30709 | 28.59819 | 26556 ft | 410 kts | 85° |
| 2026-05-07 14:16 | 41.30735 | 28.63587 | 26146 ft | 404 kts | 85° |
| 2026-05-07 14:16 | 41.30758 | 28.67303 | 25747 ft | 401 kts | 85° |
| 2026-05-07 14:16 | 41.30774 | 28.70988 | 25360 ft | 397 kts | 85° |
| 2026-05-07 14:17 | 41.30783 | 28.74639 | 24983 ft | 393 kts | 85° |
| 2026-05-07 14:17 | 41.30785 | 28.78266 | 24603 ft | 390 kts | 85° |
| 2026-05-07 14:17 | 41.30783 | 28.81801 | 24232 ft | 386 kts | 85° |
| 2026-05-07 14:17 | 41.30781 | 28.85351 | 23861 ft | 382 kts | 85° |
| 2026-05-07 14:18 | 41.30782 | 28.88870 | 23493 ft | 379 kts | 85° |
| 2026-05-07 14:18 | 41.30780 | 28.92356 | 23130 ft | 375 kts | 85° |
| 2026-05-07 14:18 | 41.30778 | 28.95799 | 22772 ft | 371 kts | 85° |
| 2026-05-07 14:18 | 41.30775 | 28.99215 | 22416 ft | 367 kts | 86° |
| 2026-05-07 14:19 | 41.30769 | 29.02599 | 22064 ft | 364 kts | 85° |
| 2026-05-07 14:19 | 41.30760 | 29.05944 | 21723 ft | 360 kts | 86° |
| 2026-05-07 14:19 | 41.30753 | 29.09254 | 21375 ft | 356 kts | 86° |
| 2026-05-07 14:19 | 41.30746 | 29.12536 | 21038 ft | 353 kts | 86° |
| 2026-05-07 14:20 | 41.30734 | 29.15736 | 20705 ft | 349 kts | 86° |
| 2026-05-07 14:20 | 41.30723 | 29.18954 | 20371 ft | 346 kts | 86° |
| 2026-05-07 14:20 | 41.30713 | 29.22142 | 20047 ft | 343 kts | 86° |
| 2026-05-07 14:20 | 41.30725 | 29.25294 | 19752 ft | 339 kts | 85° |
| 2026-05-07 14:21 | 41.30753 | 29.28413 | 19500 ft | 335 kts | 85° |
| 2026-05-07 14:21 | 41.30776 | 29.31488 | 19249 ft | 330 kts | 85° |
| 2026-05-07 14:21 | 41.30800 | 29.34527 | 18997 ft | 326 kts | 85° |
| 2026-05-07 14:21 | 41.30822 | 29.37524 | 18746 ft | 322 kts | 85° |
| 2026-05-07 14:22 | 41.30884 | 29.40483 | 18497 ft | 317 kts | 79° |
| 2026-05-07 14:22 | 41.31419 | 29.43245 | 18246 ft | 320 kts | 61° |
| 2026-05-07 14:22 | 41.32726 | 29.45620 | 18027 ft | 316 kts | 36° |
| 2026-05-07 14:22 | 41.34489 | 29.47283 | 17808 ft | 308 kts | 29° |
| 2026-05-07 14:23 | 41.36279 | 29.48802 | 17566 ft | 304 kts | 29° |
| 2026-05-07 14:23 | 41.38042 | 29.50322 | 17320 ft | 300 kts | 29° |
| 2026-05-07 14:23 | 41.39773 | 29.51852 | 17072 ft | 297 kts | 30° |
| 2026-05-07 14:23 | 41.41481 | 29.53380 | 16824 ft | 294 kts | 30° |
| 2026-05-07 14:24 | 41.43143 | 29.54885 | 16577 ft | 291 kts | 31° |
| 2026-05-07 14:24 | 41.44805 | 29.56401 | 16327 ft | 288 kts | 31° |
| 2026-05-07 14:24 | 41.46305 | 29.58172 | 16068 ft | 292 kts | 48° |
| 2026-05-07 14:24 | 41.47253 | 29.60583 | 15812 ft | 299 kts | 72° |
| 2026-05-07 14:25 | 41.47387 | 29.63359 | 15553 ft | 305 kts | 97° |
| 2026-05-07 14:25 | 41.46647 | 29.66011 | 15329 ft | 308 kts | 120° |
| 2026-05-07 14:25 | 41.45391 | 29.68416 | 15106 ft | 321 kts | 125° |
| 2026-05-07 14:25 | 41.44071 | 29.70790 | 14878 ft | 317 kts | 125° |
| 2026-05-07 14:26 | 41.42775 | 29.73155 | 14640 ft | 314 kts | 124° |
| 2026-05-07 14:26 | 41.41510 | 29.75519 | 14385 ft | 311 kts | 124° |
| 2026-05-07 14:26 | 41.40290 | 29.77837 | 14133 ft | 308 kts | 124° |
| 2026-05-07 14:26 | 41.39075 | 29.80149 | 13914 ft | 301 kts | 124° |
| 2026-05-07 14:27 | 41.37889 | 29.82410 | 13679 ft | 296 kts | 123° |
| 2026-05-07 14:27 | 41.36841 | 29.84758 | 13429 ft | 295 kts | 116° |
| 2026-05-07 14:27 | 41.35936 | 29.87201 | 13182 ft | 294 kts | 114° |
| 2026-05-07 14:27 | 41.35050 | 29.89641 | 12929 ft | 292 kts | 114° |
| 2026-05-07 14:28 | 41.34166 | 29.92069 | 12684 ft | 291 kts | 115° |
| 2026-05-07 14:28 | 41.33282 | 29.94481 | 12453 ft | 289 kts | 116° |
| 2026-05-07 14:28 | 41.32207 | 29.96694 | 12229 ft | 289 kts | 130° |
| 2026-05-07 14:28 | 41.30852 | 29.98660 | 12020 ft | 288 kts | 133° |
| 2026-05-07 14:29 | 41.29470 | 30.00577 | 11807 ft | 287 kts | 133° |
| 2026-05-07 14:29 | 41.28097 | 30.02494 | 11590 ft | 286 kts | 133° |
| 2026-05-07 14:29 | 41.26737 | 30.04405 | 11379 ft | 284 kts | 133° |
| 2026-05-07 14:29 | 41.25288 | 30.06186 | 11158 ft | 282 kts | 144° |
| 2026-05-07 14:30 | 41.23626 | 30.07539 | 10949 ft | 280 kts | 152° |
| 2026-05-07 14:30 | 41.21927 | 30.08784 | 10737 ft | 279 kts | 152° |
| 2026-05-07 14:30 | 41.20233 | 30.10033 | 10527 ft | 277 kts | 152° |
| 2026-05-07 14:30 | 41.18577 | 30.11268 | 10321 ft | 276 kts | 152° |
| 2026-05-07 14:31 | 41.16886 | 30.12464 | 10126 ft | 275 kts | 159° |
| 2026-05-07 14:31 | 41.15067 | 30.13191 | 9984 ft | 273 kts | 168° |
| 2026-05-07 14:31 | 41.13218 | 30.13731 | 9852 ft | 272 kts | 169° |
| 2026-05-07 14:31 | 41.11375 | 30.14260 | 9706 ft | 269 kts | 169° |
| 2026-05-07 14:32 | 41.09566 | 30.14790 | 9539 ft | 264 kts | 169° |
| 2026-05-07 14:32 | 41.07790 | 30.15314 | 9352 ft | 259 kts | 169° |
| 2026-05-07 14:32 | 41.06024 | 30.15601 | 9164 ft | 253 kts | 182° |
| 2026-05-07 14:32 | 41.04221 | 30.15463 | 9034 ft | 262 kts | 186° |
| 2026-05-07 14:33 | 41.02442 | 30.15273 | 8873 ft | 257 kts | 186° |
| 2026-05-07 14:33 | 41.00675 | 30.15085 | 8667 ft | 254 kts | 187° |
| 2026-05-07 14:33 | 40.98986 | 30.14541 | 8439 ft | 247 kts | 208° |
| 2026-05-07 14:33 | 40.97703 | 30.13118 | 8233 ft | 239 kts | 236° |
| 2026-05-07 14:34 | 40.97086 | 30.11106 | 8045 ft | 238 kts | 263° |
| 2026-05-07 14:34 | 40.97181 | 30.08933 | 7871 ft | 238 kts | 282° |
| 2026-05-07 14:34 | 40.97580 | 30.06810 | 7699 ft | 237 kts | 284° |
| 2026-05-07 14:34 | 40.97991 | 30.04703 | 7500 ft | 236 kts | 283° |
| 2026-05-07 14:35 | 40.98377 | 30.02627 | 7329 ft | 235 kts | 283° |
| 2026-05-07 14:35 | 40.98752 | 30.00528 | 7142 ft | 234 kts | 283° |
| 2026-05-07 14:35 | 40.99115 | 29.98436 | 6954 ft | 233 kts | 282° |
| 2026-05-07 14:35 | 40.99472 | 29.96343 | 6766 ft | 232 kts | 282° |
| 2026-05-07 14:36 | 40.99825 | 29.94266 | 6584 ft | 231 kts | 282° |
| 2026-05-07 14:36 | 41.00176 | 29.92197 | 6403 ft | 230 kts | 282° |
| 2026-05-07 14:36 | 41.00523 | 29.90133 | 6228 ft | 229 kts | 282° |
| 2026-05-07 14:36 | 41.00871 | 29.88070 | 6071 ft | 239 kts | 282° |
| 2026-05-07 14:37 | 41.01220 | 29.85983 | 5934 ft | 231 kts | 282° |
| 2026-05-07 14:37 | 41.01900 | 29.81930 | 5614 ft | 224 kts | 282° |
| 2026-05-07 14:37 | 41.02237 | 29.79913 | 5441 ft | 225 kts | 282° |
| 2026-05-07 14:38 | 41.02572 | 29.77893 | 5271 ft | 224 kts | 282° |
| 2026-05-07 14:38 | 41.02908 | 29.75883 | 5094 ft | 223 kts | 282° |
| 2026-05-07 14:38 | 41.03240 | 29.73874 | 4923 ft | 223 kts | 282° |
| 2026-05-07 14:38 | 41.03575 | 29.71877 | 4748 ft | 220 kts | 282° |
| 2026-05-07 14:39 | 41.03777 | 29.69905 | 4574 ft | 214 kts | 266° |
| 2026-05-07 14:39 | 41.03379 | 29.68044 | 4397 ft | 211 kts | 242° |
| 2026-05-07 14:39 | 41.02603 | 29.66420 | 4239 ft | 212 kts | 234° |
| 2026-05-07 14:39 | 41.01709 | 29.64870 | 4081 ft | 212 kts | 234° |
| 2026-05-07 14:40 | 41.00861 | 29.63289 | 3906 ft | 206 kts | 237° |
| 2026-05-07 14:40 | 41.00113 | 29.61682 | 3699 ft | 201 kts | 240° |
| 2026-05-07 14:40 | 40.99450 | 29.60086 | 3554 ft | 201 kts | 242° |
| 2026-05-07 14:40 | 40.98812 | 29.58441 | 3589 ft | 201 kts | 244° |
| 2026-05-07 14:41 | 40.98198 | 29.56778 | 3556 ft | 200 kts | 244° |
| 2026-05-07 14:41 | 40.97593 | 29.55123 | 3458 ft | 199 kts | 245° |
| 2026-05-07 14:41 | 40.96987 | 29.53469 | 3346 ft | 200 kts | 244° |
| 2026-05-07 14:41 | 40.96383 | 29.51818 | 3224 ft | 199 kts | 244° |
| 2026-05-07 14:42 | 40.95778 | 29.50166 | 3244 ft | 200 kts | 244° |
| 2026-05-07 14:42 | 40.95173 | 29.48512 | 3083 ft | 199 kts | 244° |
| 2026-05-07 14:42 | 40.94579 | 29.46892 | 2786 ft | 198 kts | 244° |
| 2026-05-07 14:42 | 40.93980 | 29.45255 | 2485 ft | 198 kts | 244° |
| 2026-05-07 14:43 | 40.93382 | 29.43620 | 2157 ft | 196 kts | 244° |
| 2026-05-07 14:43 | 40.92787 | 29.41998 | 1854 ft | 196 kts | 245° |
| 2026-05-07 14:43 | 40.92204 | 29.40405 | 1594 ft | 185 kts | 245° |
| 2026-05-07 14:43 | 40.91663 | 29.38929 | 1355 ft | 171 kts | 245° |
| 2026-05-07 14:44 | 40.91173 | 29.37593 | 1081 ft | 154 kts | 244° |
| 2026-05-07 14:44 | 40.90750 | 29.36438 | 805 ft | 129 kts | 244° |
| 2026-05-07 14:44 | 40.90368 | 29.35396 | 585 ft | 127 kts | 244° |
| 2026-05-07 14:44 | 40.89979 | 29.34333 | 392 ft | 129 kts | 244° |
| 2026-05-07 14:45 | 40.89595 | 29.33291 | 296 ft | 115 kts | 244° |
| 2026-05-07 14:45 | 40.89318 | 29.32533 | 307 ft | 65 kts | 245° |
| 2026-05-07 14:45 | 40.89158 | 29.32075 | 308 ft | 24 kts | 246° |
| 2026-05-07 14:45 | 40.89122 | 29.31852 | 310 ft | 26 kts | 270° |
| 2026-05-07 14:46 | 40.89134 | 29.31610 | 306 ft | 26 kts | 273° |
| 2026-05-07 14:46 | 40.89204 | 29.31428 | 308 ft | 26 kts | 11° |
| 2026-05-07 14:46 | 40.89323 | 29.31440 | 306 ft | 17 kts | 339° |
| 2026-05-07 14:46 | 40.89442 | 29.31370 | 311 ft | 20 kts | 336° |
| 2026-05-07 14:47 | 40.89578 | 29.31288 | 314 ft | 23 kts | 333° |
| 2026-05-07 14:47 | 40.89703 | 29.31204 | 316 ft | 15 kts | 333° |
| 2026-05-07 14:47 | 40.89797 | 29.31121 | 316 ft | 17 kts | 332° |
| 2026-05-07 14:47 | 40.89914 | 29.31061 | 316 ft | 19 kts | 340° |
| 2026-05-07 14:48 | 40.90037 | 29.30978 | 316 ft | 21 kts | 336° |
| 2026-05-07 14:48 | 40.90170 | 29.30901 | 316 ft | 17 kts | 335° |
| 2026-05-07 14:48 | 40.90246 | 29.30894 | 315 ft | 12 kts | 47° |
| 2026-05-07 14:48 | 40.90289 | 29.31003 | 314 ft | 14 kts | 64° |
| 2026-05-07 14:49 | 40.90334 | 29.31128 | 316 ft | 16 kts | 64° |
| 2026-05-07 14:49 | 40.90386 | 29.31266 | 316 ft | 17 kts | 63° |
| 2026-05-07 14:49 | 40.90439 | 29.31412 | 315 ft | 18 kts | 64° |
| 2026-05-07 14:49 | 40.90496 | 29.31565 | 316 ft | 18 kts | 64° |
| 2026-05-07 14:50 | 40.90525 | 29.31647 | 316 ft | 7 kts | 63° |
| 2026-05-07 14:50 | 40.90572 | 29.31656 | 316 ft | 6 kts | 339° |
| 2026-05-07 14:50 | 40.90593 | 29.31643 | 316 ft | 3 kts | 333° |
| 2026-05-07 14:50 | 40.90603 | 29.31636 | 316 ft | 0 kts | 334° |